Time;durP1;ratioP1;P1;durP2;ratioP2;P2;SDS_P1;SDS_P2;PMS_P1;PMS_P2;Temp;Humidity;BMP_temperature;BMP_pressure;BME280_temperature;BME280_humidity;BME280_pressure;Samples;Min_cycle;Max_cycle;Signal;HPM_P1;HPM_P2
2021/07/24 00:00:18;;;;;;;5.38;2.40;;;;;;;20.96;55.40;99109.38;3394552;29;20111;-72
2021/07/24 00:01:59;;;;;;;4.37;2.70;;;;;;;20.96;55.76;99099.38;3391302;29;20040;-70
2021/07/24 00:03:40;;;;;;;2.93;2.53;;;;;;;21.02;55.71;99102.84;3385404;29;20040;-71
2021/07/24 00:05:21;;;;;;;3.90;2.67;;;;;;;21.05;55.69;99115.84;3366922;29;20045;-71
2021/07/24 00:07:02;;;;;;;5.63;3.03;;;;;;;21.03;55.39;99104.47;3385749;29;20044;-71
2021/07/24 00:08:44;;;;;;;3.97;2.90;;;;;;;21.06;54.95;99112.03;3398602;29;20039;-72
2021/07/24 00:10:25;;;;;;;5.30;2.10;;;;;;;21.05;55.24;99108.53;3403890;29;20126;-72
2021/07/24 00:12:06;;;;;;;5.70;2.90;;;;;;;21.04;55.10;99116.91;3403889;29;20040;-71
2021/07/24 00:13:47;;;;;;;5.50;2.80;;;;;;;20.97;55.02;99109.09;3404151;29;20051;-74
2021/07/24 00:15:28;;;;;;;4.87;2.53;;;;;;;20.98;55.06;99121.56;3404051;29;20489;-74
2021/07/24 00:17:08;;;;;;;3.17;2.57;;;;;;;20.98;55.13;99115.31;3404112;29;20039;-71
2021/07/24 00:18:49;;;;;;;3.10;2.70;;;;;;;21.00;54.78;99113.16;3403613;29;20059;-72
2021/07/24 00:20:30;;;;;;;3.47;2.50;;;;;;;20.98;55.06;99113.41;3389044;29;20122;-72
2021/07/24 00:22:11;;;;;;;5.33;2.90;;;;;;;20.99;55.18;99119.63;3401050;29;20031;-72
2021/07/24 00:23:51;;;;;;;3.10;2.17;;;;;;;20.97;54.68;99121.84;3403891;29;20050;-72
2021/07/24 00:25:34;;;;;;;3.97;3.20;;;;;;;20.94;54.51;99106.16;3403591;29;20051;-73
2021/07/24 00:27:22;;;;;;;3.38;2.60;;;;;;;20.89;54.83;99107.78;3404388;29;20075;-73
2021/07/24 00:29:05;;;;;;;4.30;2.10;;;;;;;20.89;55.25;99115.91;3404135;29;20410;-72
2021/07/24 00:30:46;;;;;;;4.32;3.00;;;;;;;20.92;55.03;99109.94;3403218;29;20071;-75
2021/07/24 00:32:33;;;;;;;3.55;2.28;;;;;;;20.94;54.51;99114.28;3376847;29;20181;-70
2021/07/24 00:34:17;;;;;;;3.93;2.23;;;;;;;20.92;54.75;99109.94;3384804;29;20052;-72
2021/07/24 00:35:59;;;;;;;3.15;2.50;;;;;;;20.86;54.59;99108.34;3401520;29;20067;-71
2021/07/24 00:37:41;;;;;;;5.60;2.78;;;;;;;20.85;54.96;99117.53;3403854;29;20040;-71
2021/07/24 00:39:21;;;;;;;3.83;2.57;;;;;;;20.85;55.15;99111.31;3389535;29;20062;-72
2021/07/24 00:41:09;;;;;;;4.57;2.63;;;;;;;20.84;55.14;99113.22;3399919;29;20102;-73
2021/07/24 00:42:52;;;;;;;3.40;2.20;;;;;;;20.80;55.23;99114.84;3403193;29;20491;-70
2021/07/24 00:44:33;;;;;;;3.75;2.47;;;;;;;20.83;55.22;99122.44;3376640;29;20052;-73
2021/07/24 00:46:14;;;;;;;5.47;2.40;;;;;;;20.79;55.27;99115.13;3384681;29;20055;-73
2021/07/24 00:47:56;;;;;;;6.37;3.00;;;;;;;20.81;55.39;99119.19;3400929;29;20550;-71
2021/07/24 00:50:04;;;;;;;4.68;2.78;;;;;;;20.83;54.79;99125.16;3388178;29;20052;-72
2021/07/24 00:51:47;;;;;;;4.78;2.35;;;;;;;20.76;55.05;99107.56;3376655;29;20052;-71
2021/07/24 00:53:35;;;;;;;5.55;3.08;;;;;;;20.84;54.94;99113.22;3395069;29;20517;-71
2021/07/24 00:55:16;;;;;;;4.38;2.67;;;;;;;20.84;55.03;99107.78;3389576;29;20067;-71
2021/07/24 00:56:57;;;;;;;2.53;2.33;;;;;;;20.84;55.10;99117.81;3399615;29;20051;-69
2021/07/24 00:58:37;;;;;;;2.90;2.40;;;;;;;20.82;54.57;99115.38;3403008;29;20040;-70
2021/07/24 01:00:19;;;;;;;2.80;2.23;;;;;;;20.83;54.73;99110.75;3403193;29;20380;-69
2021/07/24 01:02:00;;;;;;;10.55;2.65;;;;;;;20.86;54.78;99121.88;3389547;29;20048;-69
2021/07/24 01:03:41;;;;;;;4.63;2.85;;;;;;;20.90;54.57;99116.72;3400261;29;20143;-70
2021/07/24 01:05:22;;;;;;;4.38;2.85;;;;;;;20.94;54.62;99128.63;3403291;29;20454;-71
2021/07/24 01:07:05;;;;;;;2.90;2.47;;;;;;;20.94;54.27;99127.81;3389079;29;20063;-72
2021/07/24 01:08:47;;;;;;;2.80;2.47;;;;;;;20.88;54.52;99124.28;3386461;29;20115;-73
2021/07/24 01:10:28;;;;;;;2.85;2.30;;;;;;;20.88;54.79;99130.53;3400753;29;20177;-72
2021/07/24 01:12:09;;;;;;;6.20;2.50;;;;;;;20.87;54.27;99130.81;3390632;29;20112;-72
2021/07/24 01:13:51;;;;;;;4.97;2.95;;;;;;;20.89;54.73;99128.63;3387367;29;20134;-72
2021/07/24 01:15:33;;;;;;;3.65;2.58;;;;;;;20.88;54.44;99135.97;3400812;29;20126;-72
2021/07/24 01:17:15;;;;;;;5.13;3.40;;;;;;;20.82;54.11;99123.50;3389416;29;20040;-71
2021/07/24 01:18:56;;;;;;;3.67;2.60;;;;;;;20.80;54.50;99128.38;3400164;29;20056;-73
2021/07/24 01:20:52;;;;;;;5.43;2.63;;;;;;;20.78;54.15;99141.41;3375832;29;20656;-73
2021/07/24 01:22:33;;;;;;;4.57;2.50;;;;;;;20.77;54.36;99145.19;3388730;29;20063;-73
2021/07/24 01:24:14;;;;;;;2.60;2.00;;;;;;;20.75;54.59;99141.13;3387980;29;20044;-71
2021/07/24 01:25:56;;;;;;;3.88;2.45;;;;;;;20.71;54.46;99143.59;3400094;29;20142;-74
2021/07/24 01:27:44;;;;;;;3.92;2.75;;;;;;;20.72;54.45;99139.78;3389037;29;20377;-72
2021/07/24 01:29:27;;;;;;;3.97;2.35;;;;;;;20.74;54.28;99147.66;3399753;29;20050;-73
2021/07/24 01:31:12;;;;;;;2.88;1.92;;;;;;;20.75;53.98;99150.06;3389175;29;20081;-73
2021/07/24 01:32:57;;;;;;;2.85;2.20;;;;;;;20.75;54.22;99157.38;3386960;29;20047;-73
2021/07/24 01:34:38;;;;;;;3.53;2.35;;;;;;;20.70;54.14;99155.50;3386664;29;20468;-72
2021/07/24 01:36:21;;;;;;;3.95;2.63;;;;;;;20.64;54.06;99154.69;3386416;29;20135;-74
2021/07/24 01:38:05;;;;;;;3.33;1.97;;;;;;;20.63;54.60;99157.69;3400493;29;20047;-72
2021/07/24 01:39:46;;;;;;;2.72;2.15;;;;;;;20.64;54.74;99162.00;3374960;29;20515;-73
2021/07/24 01:41:27;;;;;;;5.33;2.33;;;;;;;20.59;54.58;99148.47;3386565;29;20131;-72
2021/07/24 01:43:08;;;;;;;4.57;2.60;;;;;;;20.66;54.47;99154.44;3386132;29;20123;-72
2021/07/24 01:44:49;;;;;;;2.88;2.53;;;;;;;20.67;54.47;99161.47;3388789;29;20056;-71
2021/07/24 01:46:34;;;;;;;6.35;2.28;;;;;;;20.67;54.42;99153.34;3400772;29;20095;-73
2021/07/24 01:52:46;;;;;;;6.32;2.42;;;;;;;20.65;54.72;99172.59;3402468;29;20635;-74
2021/07/24 01:54:33;;;;;;;3.88;2.15;;;;;;;20.65;54.63;99169.88;3375643;29;20507;-73
2021/07/24 01:56:16;;;;;;;2.75;2.15;;;;;;;20.67;54.50;99166.88;3400815;29;20135;-71
2021/07/24 01:57:57;;;;;;;5.53;2.25;;;;;;;20.64;54.35;99168.22;3388988;29;20048;-73
2021/07/24 01:59:46;;;;;;;4.30;2.40;;;;;;;20.61;53.93;99162.56;3383514;29;20051;-72
2021/07/24 02:01:28;;;;;;;5.05;2.83;;;;;;;20.49;54.52;99157.41;3387418;29;20071;-72
2021/07/24 02:03:12;;;;;;;;;;;;;;;20.49;54.46;99160.91;3388663;29;20071;-72
2021/07/24 02:05:16;;;;;;;4.47;2.13;;;;;;;20.49;54.26;99160.91;3388598;29;19923;-72
2021/07/24 02:07:00;;;;;;;3.58;1.90;;;;;;;20.54;54.31;99162.00;3371329;29;20086;-71
2021/07/24 02:08:53;;;;;;;3.20;2.15;;;;;;;20.57;54.31;99167.69;3387723;29;20131;-71
2021/07/24 02:10:35;;;;;;;3.03;2.50;;;;;;;20.58;54.21;99168.53;3374189;29;20048;-74
2021/07/24 02:12:16;;;;;;;4.88;2.30;;;;;;;20.54;54.56;99168.25;3396416;29;20040;-70
2021/07/24 02:14:02;;;;;;;10.32;2.45;;;;;;;20.56;54.63;99168.00;3402045;29;20051;-71
2021/07/24 02:15:43;;;;;;;5.65;2.42;;;;;;;20.57;54.70;99162.28;3388436;29;20044;-71
2021/07/24 02:17:26;;;;;;;2.58;2.08;;;;;;;20.61;54.47;99167.97;3388397;29;20525;-70
2021/07/24 02:19:07;;;;;;;4.32;2.17;;;;;;;20.68;54.76;99174.75;3375533;29;20428;-71
2021/07/24 02:20:57;;;;;;;2.90;2.10;;;;;;;20.76;54.24;99170.66;3386422;29;20044;-72
2021/07/24 02:22:38;;;;;;;6.07;2.13;;;;;;;20.79;53.95;99170.09;3375424;29;20127;-70
2021/07/24 02:24:19;;;;;;;5.15;2.58;;;;;;;20.82;53.74;99164.13;3380350;29;20175;-72
2021/07/24 02:26:00;;;;;;;2.50;1.97;;;;;;;20.85;53.95;99169.00;3384069;29;20479;-72
2021/07/24 02:27:46;;;;;;;2.72;1.98;;;;;;;20.88;54.32;99173.88;3386027;29;20096;-73
2021/07/24 02:29:27;;;;;;;2.97;2.20;;;;;;;20.93;53.66;99173.03;3386245;29;20048;-73
2021/07/24 02:31:08;;;;;;;4.27;1.90;;;;;;;20.92;53.78;99174.94;3373893;29;20150;-70
2021/07/24 02:32:49;;;;;;;3.42;1.90;;;;;;;20.99;53.78;99173.84;3372600;29;20281;-70
2021/07/24 02:34:30;;;;;;;3.70;1.87;;;;;;;20.97;53.58;99173.31;3372761;29;20047;-70
2021/07/24 02:36:10;;;;;;;3.03;2.10;;;;;;;21.02;53.41;99179.53;3380379;29;20055;-71
2021/07/24 02:37:51;;;;;;;2.77;2.00;;;;;;;21.05;53.42;99186.28;3389058;29;20040;-69
2021/07/24 02:39:32;;;;;;;2.20;1.90;;;;;;;21.05;53.04;99189.00;3389074;29;20130;-69
2021/07/24 02:41:13;;;;;;;4.90;2.00;;;;;;;21.02;53.18;99178.72;3387192;29;20080;-72
2021/07/24 02:42:54;;;;;;;3.47;1.70;;;;;;;21.08;52.99;99183.03;3389067;29;20138;-72
2021/07/24 02:44:36;;;;;;;;;;;;;;;21.14;53.24;99190.03;3393297;29;20040;-69
2021/07/24 02:46:19;;;;;;;11.52;2.00;;;;;;;21.08;52.63;99188.44;3388686;29;19923;-73
2021/07/24 02:48:03;;;;;;;3.95;2.13;;;;;;;21.11;52.74;99190.59;3388423;29;20056;-72
2021/07/24 02:49:46;;;;;;;2.83;1.75;;;;;;;21.11;52.91;99191.41;3385256;29;20046;-74
2021/07/24 02:51:27;;;;;;;2.20;1.90;;;;;;;21.15;52.93;99193.59;3384844;29;20139;-73
2021/07/24 02:53:10;;;;;;;2.40;1.92;;;;;;;21.15;52.87;99197.09;3398898;29;20912;-74
2021/07/24 02:54:51;;;;;;;2.40;1.63;;;;;;;21.15;52.50;99194.38;3385522;29;20044;-71
2021/07/24 02:56:32;;;;;;;3.33;1.83;;;;;;;21.15;52.60;99201.72;3385455;29;20530;-71
2021/07/24 02:58:13;;;;;;;4.03;2.00;;;;;;;21.14;52.47;99198.16;3385410;29;20044;-71
2021/07/24 02:59:55;;;;;;;;;;;;;;;21.18;52.53;99206.56;3374270;29;20058;-71
2021/07/24 03:01:35;;;;;;;3.80;1.95;;;;;;;21.13;52.23;99199.28;3383004;29;20402;-72
2021/07/24 03:03:16;;;;;;;3.60;1.90;;;;;;;21.16;52.38;99206.84;3388861;29;20044;-72
2021/07/24 03:04:57;;;;;;;4.77;1.83;;;;;;;21.17;51.84;99204.94;3388371;29;20051;-73
2021/07/24 03:06:41;;;;;;;3.15;1.95;;;;;;;21.17;52.23;99203.06;3387880;29;20043;-73
2021/07/24 03:08:22;;;;;;;2.22;1.83;;;;;;;21.21;52.08;99204.13;3388379;29;20471;-70
2021/07/24 03:10:03;;;;;;;2.50;1.70;;;;;;;21.20;51.84;99197.09;3388360;29;20135;-72
2021/07/24 03:11:44;;;;;;;2.92;1.98;;;;;;;21.21;51.79;99204.13;3375098;29;20056;-73
2021/07/24 03:13:25;;;;;;;3.10;2.23;;;;;;;21.20;51.82;99202.50;3386004;29;20079;-70
2021/07/24 03:15:06;;;;;;;2.73;1.70;;;;;;;21.18;51.74;99199.25;3387922;29;20102;-74
2021/07/24 03:16:47;;;;;;;3.20;1.90;;;;;;;21.18;51.82;99198.44;3381342;29;20073;-72
2021/07/24 03:18:27;;;;;;;4.37;2.63;;;;;;;21.12;51.73;99197.66;3375806;29;20412;-72
2021/07/24 03:20:09;;;;;;;2.80;1.70;;;;;;;21.14;51.80;99198.16;3380450;29;20070;-72
2021/07/24 03:21:49;;;;;;;2.15;1.75;;;;;;;21.13;51.51;99201.97;3388563;29;20514;-73
2021/07/24 03:23:31;;;;;;;;;;;;;;;21.19;51.73;99197.34;3388563;29;20052;-71
2021/07/24 03:25:12;;;;;;;3.65;1.38;;;;;;;21.13;51.69;99204.69;3387728;29;20006;-71
2021/07/24 03:26:53;;;;;;;4.63;2.10;;;;;;;21.13;51.65;99207.41;3388505;29;20096;-72
2021/07/24 03:28:34;;;;;;;5.35;1.90;;;;;;;21.11;51.75;99209.56;3387811;29;20058;-71
2021/07/24 03:30:15;;;;;;;5.55;1.83;;;;;;;21.10;51.70;99210.66;3385399;29;20055;-71
2021/07/24 03:31:56;;;;;;;4.33;1.60;;;;;;;21.09;51.52;99218.00;3387866;29;20052;-71
2021/07/24 03:33:37;;;;;;;5.17;2.00;;;;;;;21.06;51.49;99218.50;3388017;29;20040;-70
2021/07/24 03:35:17;;;;;;;2.87;1.90;;;;;;;21.08;51.74;99220.97;3387487;29;20055;-71
2021/07/24 03:36:58;;;;;;;3.67;1.60;;;;;;;21.08;51.39;99224.47;3401707;29;20528;-72
2021/07/24 03:38:39;;;;;;;3.57;1.73;;;;;;;21.03;51.56;99219.06;3402498;29;20047;-72
2021/07/24 03:40:20;;;;;;;1.77;1.30;;;;;;;21.05;51.57;99230.44;3403729;29;20050;-72
2021/07/24 03:42:01;;;;;;;3.00;1.80;;;;;;;21.08;51.44;99226.38;3406075;29;20067;-73
2021/07/24 03:43:43;;;;;;;5.35;1.67;;;;;;;21.10;51.42;99229.63;3404320;29;20507;-71
2021/07/24 03:45:23;;;;;;;2.03;1.63;;;;;;;21.09;51.46;99233.41;3401041;29;20059;-72
2021/07/24 03:47:04;;;;;;;1.97;1.20;;;;;;;21.11;51.61;99236.66;3404740;29;20044;-70
2021/07/24 03:48:45;;;;;;;3.00;1.87;;;;;;;21.18;51.31;99245.31;3405237;29;20075;-73
2021/07/24 03:50:26;;;;;;;3.60;2.05;;;;;;;21.23;51.07;99248.03;3403919;29;20048;-74
2021/07/24 03:52:07;;;;;;;2.97;1.70;;;;;;;21.24;50.91;99241.50;3406354;29;20047;-73
2021/07/24 03:53:47;;;;;;;7.23;2.00;;;;;;;21.28;50.91;99248.00;3406495;29;20396;-72
2021/07/24 03:55:28;;;;;;;6.53;1.77;;;;;;;21.25;50.95;99259.41;3398048;29;20125;-69
2021/07/24 03:57:09;;;;;;;7.65;2.00;;;;;;;21.22;51.02;99256.41;3400792;29;20069;-68
2021/07/24 03:58:52;;;;;;;3.63;2.08;;;;;;;21.22;51.05;99259.97;3401741;29;20040;-70
2021/07/24 04:00:54;;;;;;;5.35;1.70;;;;;;;21.25;51.36;99270.25;3387591;29;20040;-74
2021/07/24 04:02:34;;;;;;;4.57;1.75;;;;;;;21.29;51.07;99265.88;3387282;29;20064;-72
2021/07/24 04:04:16;;;;;;;2.93;1.67;;;;;;;21.28;51.13;99269.69;3387963;29;20063;-71
2021/07/24 04:05:57;;;;;;;7.07;1.80;;;;;;;21.32;51.54;99273.50;3388271;29;20044;-72
2021/07/24 04:07:38;;;;;;;11.57;1.90;;;;;;;21.31;52.08;99279.19;3388724;29;20050;-71
2021/07/24 04:09:20;;;;;;;9.63;2.17;;;;;;;21.33;51.93;99280.53;3383569;29;20067;-71
2021/07/24 04:11:03;;;;;;;7.95;2.28;;;;;;;21.34;52.38;99279.44;3385015;29;20032;-76
2021/07/24 04:12:44;;;;;;;5.90;1.75;;;;;;;21.37;52.48;99271.84;3399105;29;20497;-72
2021/07/24 04:14:25;;;;;;;5.30;1.47;;;;;;;21.43;52.56;99276.19;3393413;29;20043;-71
2021/07/24 04:16:06;;;;;;;8.30;1.80;;;;;;;21.47;52.42;99285.38;3388422;29;20048;-71
2021/07/24 04:17:47;;;;;;;6.17;1.63;;;;;;;21.47;52.16;99279.97;3388514;29;20292;-73
2021/07/24 04:19:30;;;;;;;6.45;1.40;;;;;;;21.49;51.92;99283.22;3389263;29;20304;-73
2021/07/24 04:21:10;;;;;;;4.13;1.60;;;;;;;21.50;51.19;99287.53;3401390;29;20130;-72
2021/07/24 04:22:51;;;;;;;5.67;1.80;;;;;;;21.51;51.29;99289.19;3401188;29;20055;-70
2021/07/24 04:24:32;;;;;;;6.13;1.63;;;;;;;21.58;51.56;99292.38;3400745;29;20039;-72
2021/07/24 04:26:13;;;;;;;3.57;1.97;;;;;;;21.62;51.04;99292.66;3386894;29;20048;-70
2021/07/24 04:27:53;;;;;;;4.60;1.57;;;;;;;21.63;50.77;99295.09;3398220;29;20093;-71
2021/07/24 04:29:34;;;;;;;2.60;1.57;;;;;;;21.64;50.61;99296.72;3401311;29;20143;-71
2021/07/24 04:31:15;;;;;;;2.90;1.73;;;;;;;21.66;50.40;99313.53;3400650;29;20050;-73
2021/07/24 04:32:56;;;;;;;4.70;1.98;;;;;;;21.67;50.56;99308.94;3401387;29;20055;-75
2021/07/24 04:34:36;;;;;;;3.90;1.73;;;;;;;21.61;50.71;99294.56;3401763;29;20410;-75
2021/07/24 04:36:17;;;;;;;4.70;1.70;;;;;;;21.75;50.47;99314.56;3403630;29;20126;-74
2021/07/24 04:37:58;;;;;;;4.90;1.40;;;;;;;21.77;50.52;99315.13;3403727;29;20419;-75
2021/07/24 04:39:38;;;;;;;4.07;1.60;;;;;;;21.84;50.26;99317.53;3404212;29;20067;-75
2021/07/24 04:41:21;;;;;;;2.37;1.60;;;;;;;21.90;49.91;99319.13;3402897;29;20521;-74
2021/07/24 04:43:01;;;;;;;2.63;1.30;;;;;;;21.92;49.62;99318.88;3388266;29;20131;-75
2021/07/24 04:44:42;;;;;;;6.00;1.67;;;;;;;21.99;49.46;99316.63;3395729;29;20074;-76
2021/07/24 04:46:23;;;;;;;5.87;1.70;;;;;;;22.04;49.48;99316.63;3389582;29;19923;-77
2021/07/24 04:48:04;;;;;;;5.43;1.70;;;;;;;22.06;49.45;99313.63;3387081;29;20112;-76
2021/07/24 04:49:48;;;;;;;4.60;1.67;;;;;;;22.10;49.28;99320.94;3387074;29;20044;-73
2021/07/24 04:51:29;;;;;;;3.67;1.83;;;;;;;22.11;49.19;99319.84;3389771;29;20438;-71
2021/07/24 04:53:12;;;;;;;4.38;2.15;;;;;;;22.14;49.12;99326.63;3400370;29;20031;-75
2021/07/24 04:54:54;;;;;;;3.92;1.92;;;;;;;22.14;48.87;99318.47;3396867;29;20047;-76
2021/07/24 04:56:36;;;;;;;5.43;1.90;;;;;;;22.15;49.31;99325.50;3389010;29;20048;-73
2021/07/24 04:58:18;;;;;;;3.10;1.65;;;;;;;22.20;49.24;99322.78;3400975;29;20499;-73
2021/07/24 04:59:58;;;;;;;7.82;1.75;;;;;;;22.24;49.46;99325.78;3403946;29;20130;-70
2021/07/24 05:01:39;;;;;;;4.13;2.00;;;;;;;22.27;49.40;99322.50;3391882;29;20076;-71
2021/07/24 05:03:20;;;;;;;2.43;1.60;;;;;;;22.29;49.38;99325.75;3402535;29;20458;-71
2021/07/24 05:05:02;;;;;;;3.10;1.53;;;;;;;22.27;48.79;99317.88;3405250;29;20067;-71
2021/07/24 05:06:43;;;;;;;5.15;1.80;;;;;;;22.31;48.51;99326.28;3390199;29;20090;-74
2021/07/24 05:08:24;;;;;;;2.97;1.60;;;;;;;22.29;48.65;99325.75;3401028;29;20043;-72
2021/07/24 05:10:08;;;;;;;4.20;1.60;;;;;;;22.28;48.59;99321.41;3403974;29;20040;-70
2021/07/24 05:11:49;;;;;;;8.20;1.90;;;;;;;22.29;48.61;99315.69;3389731;29;20086;-71
2021/07/24 05:13:30;;;;;;;3.40;1.77;;;;;;;22.30;48.16;99319.22;3387322;29;20044;-70
2021/07/24 05:15:11;;;;;;;1.98;1.50;;;;;;;22.32;48.50;99328.72;3394394;29;20423;-70
2021/07/24 05:16:51;;;;;;;4.27;1.60;;;;;;;22.32;48.09;99326.00;3390198;29;20044;-70
2021/07/24 05:18:32;;;;;;;6.73;1.53;;;;;;;22.32;47.91;99319.75;3390545;29;20126;-71
2021/07/24 05:20:13;;;;;;;4.03;1.33;;;;;;;22.34;47.78;99325.72;3402094;29;20407;-72
2021/07/24 05:21:53;;;;;;;3.17;1.30;;;;;;;22.40;48.05;99327.31;3402702;29;20044;-70
2021/07/24 05:23:35;;;;;;;3.97;1.70;;;;;;;22.45;48.16;99332.69;3403175;29;20139;-70
2021/07/24 05:25:16;;;;;;;13.77;1.50;;;;;;;22.48;47.97;99332.13;3403189;29;20043;-71
2021/07/24 05:26:57;;;;;;;4.43;1.63;;;;;;;22.50;47.61;99321.81;3402644;29;20463;-72
2021/07/24 05:28:37;;;;;;;3.30;1.30;;;;;;;22.51;47.56;99319.88;3402729;29;20053;-73
2021/07/24 05:30:18;;;;;;;5.67;1.60;;;;;;;22.47;47.33;99327.81;3402941;29;20388;-71
2021/07/24 05:31:59;;;;;;;3.30;1.30;;;;;;;22.48;47.51;99323.19;3395599;29;20535;-71
2021/07/24 05:33:39;;;;;;;4.77;1.70;;;;;;;22.49;47.27;99330.25;3390104;29;20082;-68
2021/07/24 05:35:20;;;;;;;4.93;1.50;;;;;;;22.51;47.57;99331.59;3389768;29;20044;-67
2021/07/24 05:37:01;;;;;;;9.17;1.80;;;;;;;22.55;47.75;99329.09;3390184;29;20793;-66
2021/07/24 05:38:42;;;;;;;3.13;1.70;;;;;;;22.57;47.65;99325.03;3389933;29;20052;-69
2021/07/24 05:40:22;;;;;;;4.67;1.50;;;;;;;22.63;47.37;99325.78;3402112;29;20077;-71
2021/07/24 05:42:03;;;;;;;6.63;1.50;;;;;;;22.62;47.06;99324.97;3394843;29;20048;-70
2021/07/24 05:43:44;;;;;;;7.43;2.00;;;;;;;22.61;46.95;99328.81;3390172;29;20055;-73
2021/07/24 05:45:25;;;;;;;5.23;1.67;;;;;;;22.63;46.65;99325.78;3389796;29;20040;-71
2021/07/24 05:47:06;;;;;;;10.40;1.80;;;;;;;22.67;46.96;99326.84;3389949;29;20392;-71
2021/07/24 05:48:46;;;;;;;2.87;1.53;;;;;;;22.67;46.84;99323.34;3390027;29;20111;-73
2021/07/24 05:50:27;;;;;;;5.70;1.93;;;;;;;22.75;46.49;99323.53;3389761;29;20491;-71
2021/07/24 05:52:09;;;;;;;9.27;1.80;;;;;;;22.79;46.08;99335.44;3398121;29;20048;-72
2021/07/24 05:53:50;;;;;;;8.50;3.78;;;;;;;22.82;45.46;99337.59;3402762;29;20044;-74
2021/07/24 05:55:30;;;;;;;5.60;1.90;;;;;;;22.82;45.38;99334.06;3388751;29;20506;-72
2021/07/24 05:57:11;;;;;;;4.77;1.53;;;;;;;22.86;45.32;99335.13;3399407;29;20047;-72
2021/07/24 05:58:52;;;;;;;3.57;1.73;;;;;;;22.92;45.17;99344.84;3402111;29;20043;-72
2021/07/24 06:00:32;;;;;;;5.63;1.43;;;;;;;22.98;44.96;99354.63;3401871;29;20043;-71
2021/07/24 06:02:14;;;;;;;2.87;1.33;;;;;;;23.06;44.56;99351.28;3402029;29;20128;-73
2021/07/24 06:03:55;;;;;;;4.07;1.52;;;;;;;23.13;44.28;99353.69;3402870;29;20135;-73
2021/07/24 06:05:36;;;;;;;3.92;1.25;;;;;;;23.18;43.31;99358.25;3402757;29;20054;-73
2021/07/24 06:07:16;;;;;;;6.30;1.40;;;;;;;23.23;42.97;99355.47;3402797;29;20048;-72
2021/07/24 06:08:57;;;;;;;7.83;1.50;;;;;;;23.26;42.92;99353.03;3402758;29;20044;-72
2021/07/24 06:10:38;;;;;;;5.90;1.63;;;;;;;23.31;42.60;99357.56;3387743;29;20083;-73
2021/07/24 06:12:19;;;;;;;7.80;2.30;;;;;;;23.38;42.29;99351.81;3399457;29;20462;-73
2021/07/24 06:13:59;;;;;;;8.03;2.63;;;;;;;23.49;41.75;99359.59;3402166;29;20534;-73
2021/07/24 06:15:42;;;;;;;5.27;2.63;;;;;;;23.56;41.70;99363.88;3402620;29;20050;-72
2021/07/24 06:17:22;;;;;;;3.38;1.90;;;;;;;23.61;41.35;99366.53;3402499;29;20047;-72
2021/07/24 06:19:03;;;;;;;4.33;1.87;;;;;;;23.65;41.19;99368.41;3388543;29;20055;-75
2021/07/24 06:20:44;;;;;;;8.47;2.67;;;;;;;23.71;41.23;99355.53;3368478;29;20144;-74
2021/07/24 06:22:25;;;;;;;8.03;1.80;;;;;;;23.82;40.86;99365.22;3388999;29;20123;-73
2021/07/24 06:24:05;;;;;;;7.17;2.40;;;;;;;23.93;40.40;99355.84;3402162;29;20059;-72
2021/07/24 06:25:47;;;;;;;10.77;1.90;;;;;;;24.09;39.84;99361.09;3402110;29;20515;-72
2021/07/24 06:27:28;;;;;;;;;;;;;;;24.28;40.29;99359.19;3388895;29;20469;-73
2021/07/24 06:29:09;;;;;;;7.88;2.25;;;;;;;24.36;39.31;99361.25;3398933;29;20025;-72
2021/07/24 06:30:50;;;;;;;11.63;2.10;;;;;;;24.50;39.36;99364.13;3399617;29;20526;-72
2021/07/24 06:32:30;;;;;;;6.13;2.10;;;;;;;24.69;39.13;99366.00;3391350;29;20046;-72
2021/07/24 06:34:11;;;;;;;8.93;1.70;;;;;;;24.81;38.10;99366.38;3393529;29;20283;-72
2021/07/24 06:35:52;;;;;;;8.97;2.13;;;;;;;24.95;37.93;99366.41;3402081;29;20067;-73
2021/07/24 06:37:32;;;;;;;11.57;1.93;;;;;;;25.09;37.40;99366.44;3402479;29;20078;-74
2021/07/24 06:39:13;;;;;;;5.97;1.57;;;;;;;25.21;37.47;99367.63;3388085;29;20036;-74
2021/07/24 06:40:54;;;;;;;10.07;1.97;;;;;;;25.31;37.23;99365.84;3385013;29;20052;-72
2021/07/24 06:42:35;;;;;;;10.77;1.67;;;;;;;25.43;37.24;99377.09;3398666;29;20530;-75
2021/07/24 06:44:16;;;;;;;4.68;1.67;;;;;;;25.48;36.35;99367.97;3387586;29;20303;-74
2021/07/24 06:45:56;;;;;;;11.67;1.77;;;;;;;25.59;36.71;99380.34;3399023;29;20506;-72
2021/07/24 06:47:37;;;;;;;6.53;1.97;;;;;;;25.66;36.71;99376.09;3401883;29;20517;-71
2021/07/24 06:49:19;;;;;;;11.70;1.87;;;;;;;25.75;36.08;99376.19;3402152;29;20040;-74
2021/07/24 06:51:00;;;;;;;5.97;1.83;;;;;;;25.82;36.42;99376.59;3402428;29;20078;-74
2021/07/24 06:52:41;;;;;;;19.20;3.20;;;;;;;25.92;35.83;99370.16;3402307;29;20040;-73
2021/07/24 06:54:21;;;;;;;10.03;2.80;;;;;;;26.02;35.85;99369.97;3390295;29;20048;-73
2021/07/24 06:56:02;;;;;;;5.30;1.87;;;;;;;26.11;35.62;99376.31;3389320;29;20132;-75
2021/07/24 06:57:43;;;;;;;11.15;2.17;;;;;;;26.19;34.62;99382.97;3399812;29;20423;-71
2021/07/24 06:59:24;;;;;;;10.18;2.30;;;;;;;26.26;34.60;99374.38;3401202;29;20039;-73
2021/07/24 07:01:06;;;;;;;5.17;1.50;;;;;;;26.30;34.98;99373.44;3403450;29;20135;-73
2021/07/24 07:02:47;;;;;;;4.70;1.30;;;;;;;26.40;34.23;99372.41;3403490;29;20138;-73
2021/07/24 07:04:27;;;;;;;5.23;1.80;;;;;;;26.47;34.54;99378.28;3374652;29;20548;-73
2021/07/24 07:06:08;;;;;;;5.87;1.93;;;;;;;26.51;34.46;99373.81;3396498;29;20049;-74
2021/07/24 07:07:50;;;;;;;6.22;2.03;;;;;;;26.48;34.02;99374.41;3402034;29;20419;-73
2021/07/24 07:09:31;;;;;;;5.23;2.27;;;;;;;26.49;34.26;99375.25;3402072;29;20039;-74
2021/07/24 07:11:13;;;;;;;17.90;2.63;;;;;;;26.54;33.80;99375.97;3401836;29;20050;-74
2021/07/24 07:12:53;;;;;;;10.35;1.70;;;;;;;26.62;34.12;99373.63;3387832;29;20603;-75
2021/07/24 07:14:34;;;;;;;2.27;1.57;;;;;;;26.70;33.55;99375.59;3383266;29;20036;-73
2021/07/24 07:16:15;;;;;;;5.50;1.47;;;;;;;26.76;33.66;99382.56;3384896;29;20107;-73
2021/07/24 07:17:56;;;;;;;5.60;1.37;;;;;;;26.85;33.32;99388.09;3385040;29;20532;-75
2021/07/24 07:19:36;;;;;;;5.10;1.50;;;;;;;26.88;32.71;99376.56;3399124;29;20052;-75
2021/07/24 07:21:17;;;;;;;1.13;0.90;;;;;;;26.95;32.99;99383.19;3388371;29;20500;-74
2021/07/24 07:22:58;;;;;;;3.47;1.10;;;;;;;27.09;32.56;99383.13;3397567;29;20083;-72
2021/07/24 07:24:39;;;;;;;6.23;1.30;;;;;;;27.11;32.64;99380.88;3400822;29;20299;-75
2021/07/24 07:26:28;;;;;;;4.87;2.53;;;;;;;27.05;32.66;99382.13;3395116;29;20043;-73
2021/07/24 07:28:10;;;;;;;8.82;2.75;;;;;;;26.99;32.75;99386.13;3398110;29;20143;-72
2021/07/24 07:29:51;;;;;;;5.53;1.80;;;;;;;26.91;32.69;99384.13;3389515;29;20040;-73
2021/07/24 07:31:35;;;;;;;11.00;2.13;;;;;;;26.88;33.01;99388.28;3402295;29;20422;-73
2021/07/24 07:33:23;;;;;;;3.50;1.45;;;;;;;26.87;33.19;99381.19;3387771;29;20066;-75
2021/07/24 07:35:08;;;;;;;2.75;1.40;;;;;;;26.98;33.40;99387.25;3386697;29;20435;-72
2021/07/24 07:36:49;;;;;;;4.43;1.20;;;;;;;27.13;33.12;99377.81;3387775;29;20075;-74
2021/07/24 07:38:29;;;;;;;11.63;1.92;;;;;;;27.28;32.76;99385.69;3387488;29;20492;-71
2021/07/24 07:40:11;;;;;;;24.17;3.50;;;;;;;27.49;32.52;99390.63;3388508;29;20055;-73
2021/07/24 07:41:52;;;;;;;10.57;1.42;;;;;;;27.65;32.41;99391.00;3388455;29;20044;-72
2021/07/24 07:43:34;;;;;;;10.70;1.63;;;;;;;27.81;32.54;99392.25;3400410;29;20039;-74
2021/07/24 07:45:15;;;;;;;;;;;;;;;28.03;32.45;99389.41;3402055;29;20511;-72
2021/07/24 07:46:56;;;;;;;3.58;1.33;;;;;;;28.13;31.96;99390.25;3401872;29;19929;-74
2021/07/24 07:48:37;;;;;;;9.77;2.35;;;;;;;28.21;32.17;99392.19;3414079;28;20051;-74
2021/07/24 07:50:18;;;;;;;11.23;1.80;;;;;;;28.33;32.09;99391.59;3390870;28;20081;-75
2021/07/24 07:51:59;;;;;;;18.40;2.13;;;;;;;28.43;31.63;99392.09;3377418;29;20739;-74
2021/07/24 07:53:40;;;;;;;16.17;1.93;;;;;;;28.51;31.67;99398.72;3379646;29;20042;-74
2021/07/24 07:55:21;;;;;;;9.70;1.90;;;;;;;28.63;31.36;99401.66;3384894;29;20032;-71
2021/07/24 07:57:03;;;;;;;5.80;1.17;;;;;;;28.76;31.05;99399.88;3375270;29;20190;-73
2021/07/24 07:58:45;;;;;;;5.25;1.25;;;;;;;28.85;31.08;99402.63;3374946;29;20421;-73
2021/07/24 08:00:26;;;;;;;1.95;0.77;;;;;;;28.91;30.54;99398.56;3374625;29;20040;-75
2021/07/24 08:02:07;;;;;;;4.10;1.00;;;;;;;29.01;30.50;99405.66;3375077;29;20116;-73
2021/07/24 08:03:49;;;;;;;4.55;1.15;;;;;;;29.09;30.36;99404.88;3374598;29;20424;-72